createdAt,value
2018-05-09T00:01:15.910Z,86.50
2018-05-09T00:03:44.234Z,86.80
2018-05-09T00:06:11.735Z,86.70
2018-05-09T00:08:40.029Z,88.10
2018-05-09T00:11:08.310Z,89.10
2018-05-09T00:13:36.593Z,89.10
2018-05-09T00:16:04.871Z,89.20
2018-05-09T00:18:32.390Z,89.20
2018-05-09T00:20:59.914Z,89.30
2018-05-09T00:23:27.424Z,89.80
2018-05-09T00:25:55.741Z,90.80
2018-05-09T00:28:23.305Z,90.80
2018-05-09T00:30:50.834Z,91.10
2018-05-09T00:33:18.385Z,91.00
2018-05-09T00:35:46.708Z,91.50
2018-05-09T00:38:14.229Z,91.50
2018-05-09T00:40:42.522Z,91.40
2018-05-09T00:43:10.026Z,91.40
2018-05-09T00:45:37.528Z,91.70
2018-05-09T00:48:05.034Z,92.30
2018-05-09T00:50:32.541Z,92.30
2018-05-09T00:53:00.833Z,91.90
2018-05-09T00:55:29.144Z,92.40
2018-05-09T00:57:56.678Z,92.40
2018-05-09T01:00:24.181Z,92.30
2018-05-09T01:02:51.720Z,92.20
2018-05-09T01:05:19.213Z,91.90
2018-05-09T01:07:47.477Z,92.50
2018-05-09T01:10:15.008Z,92.50
2018-05-09T01:12:42.554Z,92.70
2018-05-09T01:15:10.071Z,92.70
2018-05-09T01:17:38.391Z,93.00
2018-05-09T01:20:05.929Z,93.00
2018-05-09T01:22:33.463Z,93.30
2018-05-09T01:25:01.746Z,93.40
2018-05-09T01:27:30.033Z,93.70
2018-05-09T01:29:58.323Z,93.80
2018-05-09T01:32:25.856Z,93.80
2018-05-09T01:34:54.170Z,94.10
2018-05-09T01:37:21.705Z,94.00
2018-05-09T01:39:49.229Z,94.10
2018-05-09T01:42:16.755Z,94.40
2018-05-09T01:44:44.288Z,94.60
2018-05-09T01:47:11.811Z,94.60
2018-05-09T01:49:39.310Z,94.80
2018-05-09T01:52:06.805Z,94.80
2018-05-09T01:54:34.338Z,95.00
2018-05-09T01:57:01.881Z,94.90
2018-05-09T01:59:29.389Z,95.50
2018-05-09T02:01:56.913Z,94.90
2018-05-09T02:04:24.433Z,95.20
2018-05-09T02:06:51.968Z,95.80
2018-05-09T02:09:19.478Z,95.80
2018-05-09T02:11:46.993Z,95.70
2018-05-09T02:14:14.514Z,95.70
2018-05-09T02:16:42.014Z,95.50
2018-05-09T02:19:09.531Z,95.50
2018-05-09T02:21:37.036Z,95.70
2018-05-09T02:24:04.592Z,96.00
2018-05-09T02:26:32.078Z,96.10
2018-05-09T02:28:59.589Z,96.30
2018-05-09T02:31:27.117Z,96.40
2018-05-09T02:33:54.645Z,96.20
2018-05-09T02:36:23.047Z,96.30
2018-05-09T02:38:50.470Z,96.30
2018-05-09T02:41:18.777Z,96.90
2018-05-09T02:43:46.371Z,96.90
2018-05-09T02:46:13.786Z,97.00
2018-05-09T02:48:41.329Z,97.00
2018-05-09T02:51:09.621Z,97.60
2018-05-09T02:53:37.138Z,97.60
2018-05-09T02:56:04.674Z,97.90
2018-05-09T02:58:32.185Z,97.80
2018-05-09T03:01:00.450Z,98.00
2018-05-09T03:03:27.997Z,98.00
2018-05-09T03:05:55.515Z,98.30
2018-05-09T03:08:23.030Z,98.10
2018-05-09T03:10:51.332Z,98.20
2018-05-09T03:13:18.870Z,98.20
2018-05-09T03:15:47.153Z,98.80
2018-05-09T03:18:14.684Z,98.80
2018-05-09T03:20:42.240Z,99.10
2018-05-09T03:23:09.756Z,99.00
2018-05-09T03:25:37.274Z,99.10
2018-05-09T03:28:05.569Z,99.40
2018-05-09T03:30:33.880Z,99.40
2018-05-09T03:33:01.365Z,99.40
2018-05-09T03:35:28.889Z,99.40
2018-05-09T03:37:56.414Z,99.50
2018-05-09T03:40:23.944Z,99.60
2018-05-09T03:42:51.469Z,99.70
2018-05-09T03:45:19.010Z,99.90
2018-05-09T03:47:46.530Z,99.90
2018-05-09T03:50:14.070Z,99.90
2018-05-09T03:52:41.589Z,99.90
2018-05-09T03:55:09.098Z,99.90
2018-05-09T03:57:36.624Z,99.90
2018-05-09T04:00:04.123Z,99.90
2018-05-09T04:02:44.313Z,99.90
2018-05-09T04:05:23.780Z,99.90
2018-05-09T04:08:03.252Z,99.90
2018-05-09T04:10:30.799Z,99.90
2018-05-09T04:12:58.294Z,99.90
2018-05-09T04:15:26.589Z,99.90
2018-05-09T04:17:54.092Z,99.90
2018-05-09T04:20:21.607Z,99.90
2018-05-09T04:22:49.130Z,99.90
2018-05-09T04:25:17.421Z,99.90
2018-05-09T04:27:45.707Z,99.90
2018-05-09T04:30:13.247Z,99.90
2018-05-09T04:32:41.549Z,99.90
2018-05-09T04:35:09.077Z,99.90
2018-05-09T04:37:37.341Z,99.90
2018-05-09T04:40:04.895Z,99.90
2018-05-09T04:42:32.430Z,99.90
2018-05-09T04:44:59.941Z,99.90
2018-05-09T04:47:27.538Z,99.90
2018-05-09T04:49:55.828Z,99.90
2018-05-09T04:52:23.325Z,99.90
2018-05-09T04:54:50.840Z,99.90
2018-05-09T04:57:18.409Z,99.90
2018-05-09T04:59:45.922Z,99.90
2018-05-09T05:02:13.454Z,99.90
2018-05-09T05:04:40.989Z,99.90
2018-05-09T05:07:08.507Z,99.90
2018-05-09T05:09:36.058Z,99.90
2018-05-09T05:12:04.368Z,99.90
2018-05-09T05:14:31.918Z,99.90
2018-05-09T05:16:59.461Z,99.90
2018-05-09T05:19:26.993Z,99.90
2018-05-09T05:21:55.294Z,99.90
2018-05-09T05:24:22.804Z,99.90
2018-05-09T05:26:50.482Z,99.90
2018-05-09T05:29:18.099Z,99.90
2018-05-09T05:31:45.630Z,99.90
2018-05-09T05:34:13.156Z,99.90
2018-05-09T05:36:40.689Z,99.90
2018-05-09T05:39:08.204Z,99.90
2018-05-09T05:41:35.738Z,99.90
2018-05-09T05:44:03.256Z,99.90
2018-05-09T05:46:30.782Z,99.90
2018-05-09T05:48:58.306Z,99.90
2018-05-09T05:51:25.834Z,99.90
2018-05-09T05:53:53.361Z,99.90
2018-05-09T05:56:21.629Z,99.90
2018-05-09T05:58:49.922Z,99.90
2018-05-09T06:01:17.457Z,99.90
2018-05-09T06:03:45.765Z,99.90
2018-05-09T06:06:13.288Z,99.90
2018-05-09T06:08:40.822Z,99.90
2018-05-09T06:11:08.380Z,99.90
2018-05-09T06:13:35.927Z,99.90
2018-05-09T06:16:03.485Z,99.50
2018-05-09T06:18:31.001Z,98.40
2018-05-09T06:20:58.535Z,98.30
2018-05-09T06:23:26.040Z,98.50
2018-05-09T06:25:53.586Z,98.10
2018-05-09T06:28:21.079Z,97.90
2018-05-09T06:30:48.570Z,98.10
2018-05-09T06:33:16.097Z,98.00
2018-05-09T06:35:43.625Z,97.60
2018-05-09T06:38:11.138Z,97.10
2018-05-09T06:40:38.680Z,97.10
2018-05-09T06:43:06.192Z,96.20
2018-05-09T06:45:34.485Z,96.00
2018-05-09T06:48:01.984Z,96.00
2018-05-09T06:50:29.515Z,95.40
2018-05-09T06:52:57.018Z,95.10
2018-05-09T06:55:24.553Z,95.10
2018-05-09T06:57:52.041Z,94.40
2018-05-09T07:00:20.324Z,93.90
2018-05-09T07:02:48.625Z,93.70
2018-05-09T07:05:16.121Z,93.60
2018-05-09T07:07:43.652Z,93.00
2018-05-09T07:10:11.142Z,92.60
2018-05-09T07:12:38.760Z,92.60
2018-05-09T07:15:06.249Z,92.30
2018-05-09T07:17:33.793Z,91.80
2018-05-09T07:20:01.313Z,91.60
2018-05-09T07:22:29.618Z,91.20
2018-05-09T07:24:57.111Z,91.20
2018-05-09T07:27:24.651Z,91.40
2018-05-09T07:29:52.157Z,90.80
2018-05-09T07:32:20.506Z,90.60
2018-05-09T07:34:48.007Z,90.60
2018-05-09T07:37:16.289Z,90.40
2018-05-09T07:39:43.822Z,90.30
2018-05-09T07:42:11.389Z,90.10
2018-05-09T07:44:38.891Z,89.50
2018-05-09T07:47:06.386Z,90.00
2018-05-09T07:49:33.906Z,89.00
2018-05-09T07:52:02.182Z,90.00
2018-05-09T07:54:29.686Z,89.90
2018-05-09T07:56:57.197Z,88.60
2018-05-09T07:59:24.705Z,88.20
2018-05-09T08:01:52.222Z,88.40
2018-05-09T08:04:19.779Z,88.50
2018-05-09T08:06:47.313Z,88.20
2018-05-09T08:09:15.573Z,87.60
2018-05-09T08:11:43.862Z,86.80
2018-05-09T08:14:12.113Z,85.90
2018-05-09T08:16:39.631Z,85.90
2018-05-09T08:19:07.162Z,86.20
2018-05-09T08:21:34.687Z,84.10
2018-05-09T08:24:02.198Z,84.40
2018-05-09T08:26:29.705Z,83.50
2018-05-09T08:28:57.242Z,83.90
2018-05-09T08:31:24.728Z,84.80
2018-05-09T08:33:52.240Z,82.70
2018-05-09T08:36:19.830Z,84.40
2018-05-09T08:38:47.290Z,84.80
2018-05-09T08:41:14.818Z,82.20
2018-05-09T08:43:42.455Z,81.90
2018-05-09T08:46:10.613Z,78.60
2018-05-09T08:48:38.893Z,80.50
2018-05-09T08:51:07.160Z,78.20
2018-05-09T08:53:35.452Z,80.50
2018-05-09T08:56:03.725Z,79.20
2018-05-09T08:58:31.985Z,80.90
2018-05-09T09:01:00.269Z,79.80
2018-05-09T09:03:28.537Z,80.90
2018-05-09T09:05:56.854Z,79.40
2018-05-09T09:08:24.373Z,79.20
2018-05-09T09:10:52.690Z,81.40
2018-05-09T09:13:20.209Z,81.30
2018-05-09T09:15:48.489Z,77.10
2018-05-09T09:18:16.766Z,75.80
2018-05-09T09:20:45.048Z,76.40
2018-05-09T09:23:13.319Z,74.20
2018-05-09T09:25:41.634Z,75.00
2018-05-09T09:28:09.121Z,75.00
2018-05-09T09:30:36.684Z,77.10
2018-05-09T09:33:04.182Z,76.70
2018-05-09T09:35:31.700Z,74.70
2018-05-09T09:37:59.233Z,73.30
2018-05-09T09:40:26.742Z,72.60
2018-05-09T09:42:54.246Z,73.20
2018-05-09T09:45:21.749Z,73.80
2018-05-09T09:47:49.267Z,73.60
2018-05-09T09:50:16.763Z,71.70
2018-05-09T09:52:44.290Z,71.50
2018-05-09T09:55:11.848Z,71.30
2018-05-09T09:57:39.361Z,72.50
2018-05-09T10:00:07.649Z,72.50
2018-05-09T10:02:35.149Z,72.50
2018-05-09T10:05:02.645Z,70.70
2018-05-09T10:07:30.918Z,71.40
2018-05-09T10:09:59.203Z,74.20
2018-05-09T10:12:27.511Z,66.90
2018-05-09T10:14:55.018Z,66.80
2018-05-09T10:17:22.540Z,67.00
2018-05-09T10:19:50.045Z,67.80
2018-05-09T10:22:17.556Z,66.30
2018-05-09T10:24:45.086Z,65.00
2018-05-09T10:27:12.591Z,63.50
2018-05-09T10:29:40.089Z,64.80
2018-05-09T10:32:08.394Z,61.50
2018-05-09T10:34:35.910Z,61.30
2018-05-09T10:37:03.454Z,60.60
2018-05-09T10:39:30.983Z,61.70
2018-05-09T10:41:58.494Z,61.60
2018-05-09T10:44:26.760Z,57.20
2018-05-09T10:46:54.281Z,57.80
2018-05-09T10:49:21.775Z,57.80
2018-05-09T10:51:49.293Z,56.70
2018-05-09T10:54:16.802Z,54.70
2018-05-09T10:56:44.341Z,53.00
2018-05-09T10:59:11.848Z,54.40
2018-05-09T11:01:39.353Z,55.80
2018-05-09T11:04:06.885Z,52.90
2018-05-09T11:06:34.401Z,55.30
2018-05-09T11:09:02.699Z,55.90
2018-05-09T11:11:30.226Z,55.80
2018-05-09T11:13:58.518Z,50.60
2018-05-09T11:16:26.849Z,50.60
2018-05-09T11:18:54.364Z,50.50
2018-05-09T11:21:21.897Z,50.80
2018-05-09T11:23:50.266Z,52.60
2018-05-09T11:26:17.755Z,52.60
2018-05-09T11:28:45.270Z,47.50
2018-05-09T11:31:12.782Z,48.50
2018-05-09T11:33:40.318Z,47.30
2018-05-09T11:36:08.599Z,49.50
2018-05-09T11:38:36.886Z,51.00
2018-05-09T11:41:05.178Z,50.70
2018-05-09T11:43:32.703Z,50.70
2018-05-09T11:46:00.969Z,50.30
2018-05-09T11:48:29.288Z,50.70
2018-05-09T11:50:56.816Z,50.70
2018-05-09T11:53:25.079Z,52.60
2018-05-09T11:55:52.622Z,52.90
2018-05-09T11:58:20.129Z,52.80
2018-05-09T12:00:52.080Z,52.60
2018-05-09T12:03:19.874Z,52.50
2018-05-09T12:05:47.387Z,53.40
2018-05-09T12:08:14.927Z,48.50
2018-05-09T12:10:42.527Z,48.00
2018-05-09T12:13:10.004Z,48.10
2018-05-09T12:15:37.584Z,49.10
2018-05-09T12:18:05.120Z,49.60
2018-05-09T12:20:34.493Z,50.90
2018-05-09T12:23:02.781Z,53.00
2018-05-09T12:25:31.090Z,53.30
2018-05-09T12:27:58.637Z,53.20
2018-05-09T12:30:26.198Z,50.70
2018-05-09T12:32:53.722Z,49.60
2018-05-09T12:35:21.255Z,52.40
2018-05-09T12:37:48.749Z,49.50
2018-05-09T12:40:17.084Z,49.00
2018-05-09T12:42:44.578Z,48.90
2018-05-09T12:45:12.905Z,46.00
2018-05-09T12:47:40.409Z,46.00
2018-05-09T12:50:07.936Z,46.10
2018-05-09T12:52:35.434Z,44.40
2018-05-09T12:55:03.698Z,48.00
2018-05-09T12:57:32.005Z,48.40
2018-05-09T13:00:00.312Z,46.00
2018-05-09T13:02:27.836Z,46.00
2018-05-09T13:04:56.166Z,44.10
2018-05-09T13:07:23.698Z,44.10
2018-05-09T13:09:51.235Z,46.60
2018-05-09T13:12:18.773Z,45.90
2018-05-09T13:14:46.297Z,45.40
2018-05-09T13:17:13.819Z,45.20
2018-05-09T13:19:41.411Z,45.30
2018-05-09T13:22:09.634Z,44.70
2018-05-09T13:24:37.922Z,43.80
2018-05-09T13:27:06.226Z,44.70
2018-05-09T13:29:33.735Z,44.70
2018-05-09T13:32:01.224Z,43.60
2018-05-09T13:34:28.742Z,42.70
2018-05-09T13:36:56.237Z,43.90
2018-05-09T13:39:23.880Z,46.40
2018-05-09T13:41:51.375Z,42.00
2018-05-09T13:44:20.834Z,41.30
2018-05-09T13:46:49.252Z,44.10
2018-05-09T13:49:16.883Z,44.10
2018-05-09T13:51:45.173Z,45.30
2018-05-09T13:54:13.461Z,46.10
2018-05-09T13:56:41.005Z,46.00
2018-05-09T13:59:09.292Z,45.60
2018-05-09T14:01:36.813Z,45.50
2018-05-09T14:04:04.360Z,43.90
2018-05-09T14:06:31.890Z,43.80
2018-05-09T14:08:59.459Z,44.60
2018-05-09T14:11:26.967Z,41.40
2018-05-09T14:13:55.241Z,46.20
2018-05-09T14:16:23.539Z,46.00
2018-05-09T14:18:51.072Z,46.00
2018-05-09T14:21:19.363Z,43.90
2018-05-09T14:23:47.636Z,44.70
2018-05-09T14:26:15.960Z,43.30
2018-05-09T14:28:43.476Z,43.20
2018-05-09T14:31:11.751Z,43.00
2018-05-09T14:33:40.056Z,42.90
2018-05-09T14:36:07.580Z,42.90
2018-05-09T14:38:35.890Z,44.90
2018-05-09T14:41:03.682Z,44.90
2018-05-09T14:43:31.423Z,43.90
2018-05-09T14:45:58.958Z,44.10
2018-05-09T14:48:27.256Z,46.50
2018-05-09T14:50:54.779Z,46.50
2018-05-09T14:53:23.360Z,44.00
2018-05-09T14:55:51.672Z,45.20
2018-05-09T14:58:22.779Z,45.20
2018-05-09T15:00:50.733Z,42.60
2018-05-09T15:03:18.726Z,40.60
2018-05-09T15:05:48.932Z,40.00
2018-05-09T15:08:18.684Z,41.50
2018-05-09T15:10:46.412Z,41.50
2018-05-09T15:13:15.223Z,42.10
2018-05-09T15:15:42.880Z,43.10
2018-05-09T15:18:10.952Z,42.00
2018-05-09T15:20:39.329Z,41.00
2018-05-09T15:23:10.001Z,40.90
2018-05-09T15:25:38.882Z,40.90
2018-05-09T15:28:07.392Z,39.40
2018-05-09T15:30:35.064Z,40.10
2018-05-09T15:33:02.686Z,40.90
2018-05-09T15:35:30.454Z,40.40
2018-05-09T15:37:58.006Z,40.80
2018-05-09T15:40:25.523Z,38.00
2018-05-09T15:42:53.060Z,40.50
2018-05-09T15:45:20.597Z,40.40
2018-05-09T15:47:48.099Z,41.60
2018-05-09T15:50:16.443Z,40.30
2018-05-09T15:52:44.001Z,40.20
2018-05-09T15:55:11.496Z,40.40
2018-05-09T15:57:39.782Z,41.80
2018-05-09T16:00:08.122Z,42.60
2018-05-09T16:02:35.619Z,42.60
2018-05-09T16:05:03.902Z,44.50
2018-05-09T16:07:32.201Z,44.40
2018-05-09T16:10:00.593Z,44.40
2018-05-09T16:12:28.092Z,45.10
2018-05-09T16:14:55.655Z,45.10
2018-05-09T16:17:23.168Z,45.00
2018-05-09T16:19:50.718Z,45.00
2018-05-09T16:22:18.270Z,45.80
2018-05-09T16:24:45.760Z,44.70
2018-05-09T16:27:13.265Z,43.80
2018-05-09T16:29:41.554Z,42.90
2018-05-09T16:32:09.065Z,42.80
2018-05-09T16:34:36.625Z,43.70
2018-05-09T16:37:04.141Z,43.70
2018-05-09T16:39:31.633Z,42.10
2018-05-09T16:41:59.160Z,42.80
2018-05-09T16:44:26.692Z,43.80
2018-05-09T16:46:54.966Z,43.10
2018-05-09T16:49:23.225Z,43.40
2018-05-09T16:51:50.744Z,43.40
2018-05-09T16:54:18.232Z,42.90
2018-05-09T16:56:45.750Z,41.60
2018-05-09T16:59:13.290Z,42.70
2018-05-09T17:01:41.577Z,43.70
2018-05-09T17:04:09.096Z,43.70
2018-05-09T17:06:36.633Z,42.80
2018-05-09T17:09:04.142Z,42.50
2018-05-09T17:11:32.442Z,46.30
2018-05-09T17:13:59.986Z,46.20
2018-05-09T17:16:27.531Z,45.70
2018-05-09T17:18:55.825Z,44.90
2018-05-09T17:21:35.323Z,44.80
2018-05-09T17:24:02.892Z,45.10
2018-05-09T17:26:31.172Z,45.30
2018-05-09T17:28:59.498Z,44.30
2018-05-09T17:31:27.020Z,44.20
2018-05-09T17:33:55.290Z,45.60
2018-05-09T17:36:23.679Z,47.70
2018-05-09T17:38:51.953Z,46.00
2018-05-09T17:41:20.227Z,45.10
2018-05-09T17:43:48.530Z,44.90
2018-05-09T17:46:16.056Z,44.90
2018-05-09T17:48:44.332Z,46.90
2018-05-09T17:51:12.629Z,46.70
2018-05-09T17:53:40.322Z,46.70
2018-05-09T17:56:08.047Z,47.50
2018-05-09T17:58:35.582Z,46.60
2018-05-09T18:01:03.107Z,47.00
2018-05-09T18:03:30.738Z,47.60
2018-05-09T18:05:58.384Z,46.40
2018-05-09T18:08:25.895Z,48.00
2018-05-09T18:10:53.424Z,47.80
2018-05-09T18:13:21.017Z,47.80
2018-05-09T18:15:48.894Z,48.90
2018-05-09T18:18:16.450Z,48.70
2018-05-09T18:20:43.987Z,48.50
2018-05-09T18:23:11.592Z,50.00
2018-05-09T18:25:39.273Z,50.70
2018-05-09T18:28:06.818Z,50.60
2018-05-09T18:30:35.111Z,53.70
2018-05-09T18:33:02.630Z,53.60
2018-05-09T18:35:30.277Z,54.90
2018-05-09T18:37:57.794Z,56.30
2018-05-09T18:40:25.325Z,57.40
2018-05-09T18:42:53.605Z,59.80
2018-05-09T18:45:21.922Z,59.60
2018-05-09T18:47:49.446Z,60.30
2018-05-09T18:50:17.741Z,60.70
2018-05-09T18:52:46.049Z,59.70
2018-05-09T18:55:13.557Z,59.60
2018-05-09T18:57:41.879Z,61.70
2018-05-09T19:00:09.383Z,61.70
2018-05-09T19:02:37.671Z,64.80
2018-05-09T19:05:05.994Z,63.00
2018-05-09T19:07:33.558Z,62.90
2018-05-09T19:10:01.208Z,63.80
2018-05-09T19:12:28.945Z,64.30
2018-05-09T19:14:56.488Z,65.30
2018-05-09T19:17:24.797Z,67.10
2018-05-09T19:19:52.345Z,67.10
2018-05-09T19:22:20.667Z,71.40
2018-05-09T19:24:48.703Z,71.30
2018-05-09T19:27:16.277Z,74.80
2018-05-09T19:29:43.817Z,77.40
2018-05-09T19:32:11.385Z,77.50
2018-05-09T19:34:38.994Z,79.10
2018-05-09T19:37:07.418Z,80.30
2018-05-09T19:39:34.934Z,80.10
2018-05-09T19:42:02.462Z,79.30
2018-05-09T19:44:30.057Z,77.80
2018-05-09T19:46:57.577Z,80.70
2018-05-09T19:49:25.105Z,83.20
2018-05-09T19:51:52.621Z,88.10
2018-05-09T19:54:20.193Z,87.80
2018-05-09T19:56:47.750Z,90.20
2018-05-09T19:59:15.429Z,91.20
2018-05-09T20:01:42.957Z,91.60
2018-05-09T20:04:10.594Z,91.80
2018-05-09T20:06:38.138Z,91.30
2018-05-09T20:09:05.671Z,92.80
2018-05-09T20:11:34.009Z,91.80
2018-05-09T20:14:01.605Z,91.80
2018-05-09T20:16:29.248Z,93.10
2018-05-09T20:18:56.781Z,91.80
2018-05-09T20:21:24.290Z,93.70
2018-05-09T20:23:52.596Z,94.60
2018-05-09T20:26:20.264Z,94.60
2018-05-09T20:28:53.541Z,94.70
2018-05-09T20:31:38.763Z,95.10
2018-05-09T20:34:06.324Z,94.30
2018-05-09T20:36:33.831Z,94.50
2018-05-09T20:39:01.374Z,94.70
2018-05-09T20:41:29.681Z,94.60
2018-05-09T20:43:57.218Z,94.60
2018-05-09T20:46:25.508Z,94.70
2018-05-09T20:48:53.021Z,94.70
2018-05-09T20:51:32.369Z,95.40
2018-05-09T20:54:00.636Z,95.60
2018-05-09T20:56:28.165Z,95.60
2018-05-09T20:58:55.783Z,96.10
2018-05-09T21:01:35.123Z,96.60
2018-05-09T21:04:02.653Z,96.60
2018-05-09T21:06:30.151Z,97.10
2018-05-09T21:08:57.683Z,96.70
2018-05-09T21:11:25.985Z,97.50
2018-05-09T21:13:53.513Z,97.50
2018-05-09T21:16:21.017Z,97.00
2018-05-09T21:18:48.565Z,97.40
2018-05-09T21:21:16.080Z,96.70
2018-05-09T21:23:43.622Z,97.20
2018-05-09T21:26:11.165Z,96.80
2018-05-09T21:28:38.719Z,96.30
2018-05-09T21:31:06.250Z,96.30
2018-05-09T21:33:33.785Z,97.20
2018-05-09T21:36:01.306Z,96.80
2018-05-09T21:38:29.575Z,98.50
2018-05-09T21:40:57.890Z,99.20
2018-05-09T21:43:25.450Z,99.20
2018-05-09T21:45:53.042Z,99.90
2018-05-09T21:48:21.327Z,99.90
2018-05-09T21:50:48.864Z,99.90
2018-05-09T21:53:17.141Z,99.90
2018-05-09T21:55:45.451Z,99.90
2018-05-09T21:58:12.955Z,99.90
2018-05-09T22:00:40.520Z,99.90
2018-05-09T22:03:08.034Z,98.70
2018-05-09T22:05:35.557Z,97.30
2018-05-09T22:08:03.830Z,98.80
2018-05-09T22:10:32.156Z,98.70
2018-05-09T22:12:59.665Z,98.70
2018-05-09T22:15:27.983Z,98.80
2018-05-09T22:17:55.534Z,98.80
2018-05-09T22:20:23.077Z,98.20
2018-05-09T22:22:50.606Z,98.40
2018-05-09T22:25:18.134Z,99.40
2018-05-09T22:27:45.646Z,99.20
2018-05-09T22:30:13.925Z,98.50
2018-05-09T22:32:42.218Z,98.70
2018-05-09T22:35:09.745Z,98.80
2018-05-09T22:37:38.032Z,98.70
2018-05-09T22:40:06.303Z,99.90
2018-05-09T22:42:34.631Z,99.90
2018-05-09T22:45:02.152Z,99.90
2018-05-09T22:47:30.433Z,99.90
2018-05-09T22:49:57.961Z,99.90
2018-05-09T22:52:26.243Z,99.90
2018-05-09T22:54:54.572Z,99.90
2018-05-09T22:57:22.144Z,99.90
2018-05-09T22:59:49.654Z,99.90
2018-05-09T23:02:17.923Z,99.90
2018-05-09T23:04:46.221Z,99.90
2018-05-09T23:07:13.730Z,99.90
2018-05-09T23:09:41.273Z,99.90
2018-05-09T23:12:08.780Z,99.90
2018-05-09T23:14:37.053Z,99.90
2018-05-09T23:17:05.421Z,99.90
2018-05-09T23:19:32.854Z,99.90
2018-05-09T23:22:00.366Z,99.90
2018-05-09T23:24:27.858Z,99.90
2018-05-09T23:26:55.380Z,99.90
2018-05-09T23:29:22.887Z,99.90
2018-05-09T23:31:50.424Z,99.90
2018-05-09T23:34:17.954Z,99.90
2018-05-09T23:36:45.466Z,99.90
2018-05-09T23:39:12.982Z,99.90
2018-05-09T23:41:40.518Z,99.90
2018-05-09T23:44:08.025Z,99.90
2018-05-09T23:46:35.562Z,99.90
2018-05-09T23:49:03.060Z,99.90
2018-05-09T23:51:30.595Z,99.90
2018-05-09T23:53:58.102Z,99.90
2018-05-09T23:56:26.374Z,99.90
2018-05-09T23:58:53.893Z,99.90
